sensor_id;sensor_type;location;lat;lon;timestamp;P1;durP1;ratioP1;P2;durP2;ratioP2
1885;SDS011;943;51.568;6.998;2023-04-22T00:01:17;17.07;;;12.43;;
1885;SDS011;943;51.568;6.998;2023-04-22T00:03:45;17.33;;;12.40;;
1885;SDS011;943;51.568;6.998;2023-04-22T00:06:13;15.70;;;11.90;;
1885;SDS011;943;51.568;6.998;2023-04-22T00:08:41;17.30;;;12.33;;
1885;SDS011;943;51.568;6.998;2023-04-22T00:11:09;17.70;;;11.20;;
1885;SDS011;943;51.568;6.998;2023-04-22T00:13:37;19.43;;;13.30;;
1885;SDS011;943;51.568;6.998;2023-04-22T00:16:04;18.47;;;12.83;;
1885;SDS011;943;51.568;6.998;2023-04-22T00:18:36;15.27;;;10.97;;
1885;SDS011;943;51.568;6.998;2023-04-22T00:21:04;18.93;;;12.07;;
1885;SDS011;943;51.568;6.998;2023-04-22T00:23:33;17.27;;;13.13;;
1885;SDS011;943;51.568;6.998;2023-04-22T00:26:01;17.43;;;12.87;;
1885;SDS011;943;51.568;6.998;2023-04-22T00:28:29;17.80;;;13.17;;
1885;SDS011;943;51.568;6.998;2023-04-22T00:30:57;17.77;;;12.80;;
1885;SDS011;943;51.568;6.998;2023-04-22T00:33:24;17.57;;;12.87;;
1885;SDS011;943;51.568;6.998;2023-04-22T00:35:52;16.97;;;12.30;;
1885;SDS011;943;51.568;6.998;2023-04-22T00:38:21;17.00;;;13.20;;
1885;SDS011;943;51.568;6.998;2023-04-22T00:40:49;18.23;;;12.47;;
1885;SDS011;943;51.568;6.998;2023-04-22T00:43:17;17.90;;;13.00;;
1885;SDS011;943;51.568;6.998;2023-04-22T00:45:45;16.70;;;13.33;;
1885;SDS011;943;51.568;6.998;2023-04-22T00:48:16;17.07;;;13.43;;
1885;SDS011;943;51.568;6.998;2023-04-22T00:50:45;15.63;;;11.10;;
1885;SDS011;943;51.568;6.998;2023-04-22T00:53:12;16.00;;;12.30;;
1885;SDS011;943;51.568;6.998;2023-04-22T00:55:40;20.37;;;13.97;;
1885;SDS011;943;51.568;6.998;2023-04-22T00:58:08;17.50;;;13.03;;
1885;SDS011;943;51.568;6.998;2023-04-22T01:00:36;20.10;;;13.77;;
1885;SDS011;943;51.568;6.998;2023-04-22T01:03:05;18.03;;;13.97;;
1885;SDS011;943;51.568;6.998;2023-04-22T01:05:34;18.80;;;13.73;;
1885;SDS011;943;51.568;6.998;2023-04-22T01:08:02;17.50;;;12.53;;
1885;SDS011;943;51.568;6.998;2023-04-22T01:10:30;19.50;;;12.77;;
1885;SDS011;943;51.568;6.998;2023-04-22T01:12:58;18.20;;;12.83;;
1885;SDS011;943;51.568;6.998;2023-04-22T01:15:26;16.57;;;12.07;;
1885;SDS011;943;51.568;6.998;2023-04-22T01:17:54;16.23;;;12.40;;
1885;SDS011;943;51.568;6.998;2023-04-22T01:20:23;18.27;;;12.80;;
1885;SDS011;943;51.568;6.998;2023-04-22T01:22:55;17.43;;;13.30;;
1885;SDS011;943;51.568;6.998;2023-04-22T01:25:29;19.30;;;13.87;;
1885;SDS011;943;51.568;6.998;2023-04-22T01:27:57;18.70;;;14.07;;
1885;SDS011;943;51.568;6.998;2023-04-22T01:30:25;17.90;;;13.50;;
1885;SDS011;943;51.568;6.998;2023-04-22T01:32:53;20.87;;;13.93;;
1885;SDS011;943;51.568;6.998;2023-04-22T01:35:22;22.17;;;13.93;;
1885;SDS011;943;51.568;6.998;2023-04-22T01:37:50;18.17;;;14.20;;
1885;SDS011;943;51.568;6.998;2023-04-22T01:40:17;19.20;;;13.77;;
1885;SDS011;943;51.568;6.998;2023-04-22T01:42:48;23.97;;;16.67;;
1885;SDS011;943;51.568;6.998;2023-04-22T01:45:17;21.80;;;17.27;;
1885;SDS011;943;51.568;6.998;2023-04-22T01:47:45;22.73;;;16.90;;
1885;SDS011;943;51.568;6.998;2023-04-22T01:50:13;24.10;;;16.03;;
1885;SDS011;943;51.568;6.998;2023-04-22T01:52:41;27.70;;;17.73;;
1885;SDS011;943;51.568;6.998;2023-04-22T01:55:09;27.60;;;18.03;;
1885;SDS011;943;51.568;6.998;2023-04-22T01:57:37;25.57;;;19.77;;
1885;SDS011;943;51.568;6.998;2023-04-22T02:00:05;27.00;;;19.07;;
1885;SDS011;943;51.568;6.998;2023-04-22T02:02:37;26.47;;;19.83;;
1885;SDS011;943;51.568;6.998;2023-04-22T02:05:06;26.33;;;18.50;;
1885;SDS011;943;51.568;6.998;2023-04-22T02:07:35;23.97;;;16.70;;
1885;SDS011;943;51.568;6.998;2023-04-22T02:10:04;22.60;;;16.93;;
1885;SDS011;943;51.568;6.998;2023-04-22T02:12:34;31.30;;;20.23;;
1885;SDS011;943;51.568;6.998;2023-04-22T02:15:02;23.80;;;19.00;;
1885;SDS011;943;51.568;6.998;2023-04-22T02:17:31;26.03;;;19.20;;
1885;SDS011;943;51.568;6.998;2023-04-22T02:19:59;25.33;;;19.27;;
1885;SDS011;943;51.568;6.998;2023-04-22T02:22:30;26.40;;;18.30;;
1885;SDS011;943;51.568;6.998;2023-04-22T02:24:59;27.67;;;19.30;;
1885;SDS011;943;51.568;6.998;2023-04-22T02:27:27;22.47;;;18.40;;
1885;SDS011;943;51.568;6.998;2023-04-22T02:29:55;32.20;;;20.63;;
1885;SDS011;943;51.568;6.998;2023-04-22T02:32:23;27.23;;;20.40;;
1885;SDS011;943;51.568;6.998;2023-04-22T02:34:51;27.97;;;20.47;;
1885;SDS011;943;51.568;6.998;2023-04-22T02:37:19;28.07;;;19.43;;
1885;SDS011;943;51.568;6.998;2023-04-22T02:39:48;26.87;;;19.50;;
1885;SDS011;943;51.568;6.998;2023-04-22T02:42:16;28.40;;;20.07;;
1885;SDS011;943;51.568;6.998;2023-04-22T02:44:44;25.97;;;20.07;;
1885;SDS011;943;51.568;6.998;2023-04-22T02:47:12;24.53;;;18.10;;
1885;SDS011;943;51.568;6.998;2023-04-22T02:49:40;26.03;;;20.17;;
1885;SDS011;943;51.568;6.998;2023-04-22T02:52:08;29.50;;;21.47;;
1885;SDS011;943;51.568;6.998;2023-04-22T02:54:35;29.37;;;20.07;;
1885;SDS011;943;51.568;6.998;2023-04-22T02:57:03;27.50;;;20.60;;
1885;SDS011;943;51.568;6.998;2023-04-22T02:59:33;25.63;;;19.63;;
1885;SDS011;943;51.568;6.998;2023-04-22T03:02:03;30.37;;;21.17;;
1885;SDS011;943;51.568;6.998;2023-04-22T03:04:51;26.60;;;19.63;;
1885;SDS011;943;51.568;6.998;2023-04-22T03:07:20;26.03;;;18.50;;
1885;SDS011;943;51.568;6.998;2023-04-22T03:09:48;28.83;;;20.30;;
1885;SDS011;943;51.568;6.998;2023-04-22T03:12:16;28.17;;;20.63;;
1885;SDS011;943;51.568;6.998;2023-04-22T03:14:44;27.47;;;19.77;;
1885;SDS011;943;51.568;6.998;2023-04-22T03:17:13;31.37;;;21.67;;
1885;SDS011;943;51.568;6.998;2023-04-22T03:19:40;27.20;;;20.63;;
1885;SDS011;943;51.568;6.998;2023-04-22T03:22:09;25.13;;;18.97;;
1885;SDS011;943;51.568;6.998;2023-04-22T03:24:37;31.53;;;21.40;;
1885;SDS011;943;51.568;6.998;2023-04-22T03:27:08;27.60;;;19.10;;
1885;SDS011;943;51.568;6.998;2023-04-22T03:29:38;35.37;;;22.13;;
1885;SDS011;943;51.568;6.998;2023-04-22T03:32:06;23.63;;;18.27;;
1885;SDS011;943;51.568;6.998;2023-04-22T03:34:36;25.27;;;20.07;;
1885;SDS011;943;51.568;6.998;2023-04-22T03:37:07;26.53;;;19.47;;
1885;SDS011;943;51.568;6.998;2023-04-22T03:39:36;30.40;;;20.20;;
1885;SDS011;943;51.568;6.998;2023-04-22T03:42:05;26.17;;;18.73;;
1885;SDS011;943;51.568;6.998;2023-04-22T03:44:38;26.20;;;17.70;;
1885;SDS011;943;51.568;6.998;2023-04-22T03:47:07;27.57;;;19.80;;
1885;SDS011;943;51.568;6.998;2023-04-22T03:49:42;21.67;;;16.70;;
1885;SDS011;943;51.568;6.998;2023-04-22T03:52:10;25.13;;;16.93;;
1885;SDS011;943;51.568;6.998;2023-04-22T03:54:44;21.90;;;16.17;;
1885;SDS011;943;51.568;6.998;2023-04-22T03:57:12;24.67;;;16.93;;
1885;SDS011;943;51.568;6.998;2023-04-22T03:59:40;22.37;;;16.13;;
1885;SDS011;943;51.568;6.998;2023-04-22T04:02:14;25.83;;;17.47;;
1885;SDS011;943;51.568;6.998;2023-04-22T04:04:42;20.47;;;15.37;;
1885;SDS011;943;51.568;6.998;2023-04-22T04:07:11;19.83;;;14.13;;
1885;SDS011;943;51.568;6.998;2023-04-22T04:09:49;21.43;;;15.87;;
1885;SDS011;943;51.568;6.998;2023-04-22T04:12:17;23.67;;;17.30;;
1885;SDS011;943;51.568;6.998;2023-04-22T04:14:45;24.13;;;15.63;;
1885;SDS011;943;51.568;6.998;2023-04-22T04:17:17;26.63;;;15.20;;
1885;SDS011;943;51.568;6.998;2023-04-22T04:19:45;18.33;;;14.03;;
1885;SDS011;943;51.568;6.998;2023-04-22T04:22:13;18.37;;;14.47;;
1885;SDS011;943;51.568;6.998;2023-04-22T04:24:49;20.00;;;13.70;;
1885;SDS011;943;51.568;6.998;2023-04-22T04:27:21;21.40;;;14.57;;
1885;SDS011;943;51.568;6.998;2023-04-22T04:29:52;22.53;;;15.23;;
1885;SDS011;943;51.568;6.998;2023-04-22T04:32:42;18.13;;;12.60;;
1885;SDS011;943;51.568;6.998;2023-04-22T04:35:13;17.70;;;12.17;;
1885;SDS011;943;51.568;6.998;2023-04-22T04:37:46;19.60;;;14.97;;
1885;SDS011;943;51.568;6.998;2023-04-22T04:40:13;19.10;;;14.00;;
1885;SDS011;943;51.568;6.998;2023-04-22T04:42:51;13.50;;;11.50;;
1885;SDS011;943;51.568;6.998;2023-04-22T04:45:25;17.57;;;13.17;;
1885;SDS011;943;51.568;6.998;2023-04-22T04:47:56;17.10;;;14.00;;
1885;SDS011;943;51.568;6.998;2023-04-22T04:50:33;16.70;;;12.23;;
1885;SDS011;943;51.568;6.998;2023-04-22T04:53:01;17.10;;;12.97;;
1885;SDS011;943;51.568;6.998;2023-04-22T04:55:35;18.60;;;13.53;;
1885;SDS011;943;51.568;6.998;2023-04-22T04:58:11;17.03;;;12.47;;
1885;SDS011;943;51.568;6.998;2023-04-22T05:00:39;15.23;;;12.50;;
1885;SDS011;943;51.568;6.998;2023-04-22T05:03:08;14.63;;;12.03;;
1885;SDS011;943;51.568;6.998;2023-04-22T05:05:37;15.00;;;11.50;;
1885;SDS011;943;51.568;6.998;2023-04-22T05:08:05;17.00;;;12.17;;
1885;SDS011;943;51.568;6.998;2023-04-22T05:10:36;18.97;;;12.80;;
1885;SDS011;943;51.568;6.998;2023-04-22T05:13:04;13.97;;;11.03;;
1885;SDS011;943;51.568;6.998;2023-04-22T05:15:32;14.40;;;11.70;;
1885;SDS011;943;51.568;6.998;2023-04-22T05:18:01;13.27;;;10.60;;
1885;SDS011;943;51.568;6.998;2023-04-22T05:20:30;11.83;;;9.50;;
1885;SDS011;943;51.568;6.998;2023-04-22T05:23:02;14.27;;;10.50;;
1885;SDS011;943;51.568;6.998;2023-04-22T05:25:30;13.57;;;10.83;;
1885;SDS011;943;51.568;6.998;2023-04-22T05:28:04;13.73;;;10.37;;
1885;SDS011;943;51.568;6.998;2023-04-22T05:30:39;11.73;;;10.00;;
1885;SDS011;943;51.568;6.998;2023-04-22T05:33:07;13.73;;;10.10;;
1885;SDS011;943;51.568;6.998;2023-04-22T05:35:36;12.67;;;10.17;;
1885;SDS011;943;51.568;6.998;2023-04-22T05:38:04;12.03;;;9.03;;
1885;SDS011;943;51.568;6.998;2023-04-22T05:40:35;11.20;;;8.57;;
1885;SDS011;943;51.568;6.998;2023-04-22T05:43:04;10.80;;;8.60;;
1885;SDS011;943;51.568;6.998;2023-04-22T05:45:32;17.03;;;14.33;;
1885;SDS011;943;51.568;6.998;2023-04-22T05:48:02;17.97;;;14.27;;
1885;SDS011;943;51.568;6.998;2023-04-22T05:50:37;13.53;;;10.97;;
1885;SDS011;943;51.568;6.998;2023-04-22T05:53:06;14.63;;;11.07;;
1885;SDS011;943;51.568;6.998;2023-04-22T05:55:35;12.80;;;11.50;;
1885;SDS011;943;51.568;6.998;2023-04-22T05:58:05;10.43;;;9.33;;
1885;SDS011;943;51.568;6.998;2023-04-22T06:00:44;12.30;;;9.40;;
1885;SDS011;943;51.568;6.998;2023-04-22T06:03:38;10.40;;;8.27;;
1885;SDS011;943;51.568;6.998;2023-04-22T06:06:06;9.50;;;7.90;;
1885;SDS011;943;51.568;6.998;2023-04-22T06:08:34;10.37;;;8.77;;
1885;SDS011;943;51.568;6.998;2023-04-22T06:11:02;11.13;;;7.67;;
1885;SDS011;943;51.568;6.998;2023-04-22T06:13:34;10.70;;;8.43;;
1885;SDS011;943;51.568;6.998;2023-04-22T06:16:02;12.00;;;8.73;;
1885;SDS011;943;51.568;6.998;2023-04-22T06:18:35;8.53;;;7.10;;
1885;SDS011;943;51.568;6.998;2023-04-22T06:21:08;8.83;;;7.70;;
1885;SDS011;943;51.568;6.998;2023-04-22T06:23:36;6.90;;;6.17;;
1885;SDS011;943;51.568;6.998;2023-04-22T06:26:04;10.30;;;7.40;;
1885;SDS011;943;51.568;6.998;2023-04-22T06:28:33;10.13;;;6.37;;
1885;SDS011;943;51.568;6.998;2023-04-22T06:31:06;9.27;;;6.50;;
1885;SDS011;943;51.568;6.998;2023-04-22T06:33:34;6.90;;;6.10;;
1885;SDS011;943;51.568;6.998;2023-04-22T06:36:02;8.23;;;5.70;;
1885;SDS011;943;51.568;6.998;2023-04-22T06:38:33;10.13;;;6.90;;
1885;SDS011;943;51.568;6.998;2023-04-22T06:41:39;8.33;;;6.10;;
1885;SDS011;943;51.568;6.998;2023-04-22T06:44:32;6.80;;;5.57;;
1885;SDS011;943;51.568;6.998;2023-04-22T06:47:19;10.00;;;6.60;;
1885;SDS011;943;51.568;6.998;2023-04-22T06:49:57;7.60;;;5.50;;
1885;SDS011;943;51.568;6.998;2023-04-22T06:52:29;6.60;;;5.60;;
1885;SDS011;943;51.568;6.998;2023-04-22T06:54:57;11.63;;;6.87;;
1885;SDS011;943;51.568;6.998;2023-04-22T06:57:25;8.07;;;5.73;;
1885;SDS011;943;51.568;6.998;2023-04-22T06:59:53;7.60;;;6.00;;
1885;SDS011;943;51.568;6.998;2023-04-22T07:02:24;9.27;;;5.50;;
1885;SDS011;943;51.568;6.998;2023-04-22T07:04:52;10.40;;;5.97;;
1885;SDS011;943;51.568;6.998;2023-04-22T07:07:22;12.00;;;6.20;;
1885;SDS011;943;51.568;6.998;2023-04-22T07:09:50;7.33;;;5.10;;
1885;SDS011;943;51.568;6.998;2023-04-22T07:12:18;5.97;;;4.90;;
1885;SDS011;943;51.568;6.998;2023-04-22T07:14:47;9.27;;;4.20;;
1885;SDS011;943;51.568;6.998;2023-04-22T07:17:15;7.00;;;4.93;;
1885;SDS011;943;51.568;6.998;2023-04-22T07:19:47;6.80;;;4.97;;
1885;SDS011;943;51.568;6.998;2023-04-22T07:22:15;9.10;;;5.00;;
1885;SDS011;943;51.568;6.998;2023-04-22T07:24:43;6.20;;;4.40;;
1885;SDS011;943;51.568;6.998;2023-04-22T07:27:11;8.27;;;4.97;;
1885;SDS011;943;51.568;6.998;2023-04-22T07:29:39;5.20;;;4.10;;
1885;SDS011;943;51.568;6.998;2023-04-22T07:32:07;5.73;;;4.20;;
1885;SDS011;943;51.568;6.998;2023-04-22T07:34:35;5.50;;;3.47;;
1885;SDS011;943;51.568;6.998;2023-04-22T07:37:03;4.13;;;3.30;;
1885;SDS011;943;51.568;6.998;2023-04-22T07:39:32;5.00;;;3.17;;
1885;SDS011;943;51.568;6.998;2023-04-22T07:42:00;3.30;;;2.97;;
1885;SDS011;943;51.568;6.998;2023-04-22T07:44:29;4.50;;;3.30;;
1885;SDS011;943;51.568;6.998;2023-04-22T07:46:57;4.80;;;2.97;;
1885;SDS011;943;51.568;6.998;2023-04-22T07:49:25;4.30;;;2.90;;
1885;SDS011;943;51.568;6.998;2023-04-22T07:51:53;4.70;;;4.00;;
1885;SDS011;943;51.568;6.998;2023-04-22T07:54:22;4.10;;;3.30;;
1885;SDS011;943;51.568;6.998;2023-04-22T07:56:50;4.10;;;3.00;;
1885;SDS011;943;51.568;6.998;2023-04-22T07:59:17;3.87;;;3.00;;
1885;SDS011;943;51.568;6.998;2023-04-22T08:01:45;3.27;;;2.80;;
1885;SDS011;943;51.568;6.998;2023-04-22T08:04:13;3.37;;;3.00;;
1885;SDS011;943;51.568;6.998;2023-04-22T08:06:42;3.53;;;2.60;;
1885;SDS011;943;51.568;6.998;2023-04-22T08:09:09;4.27;;;2.20;;
1885;SDS011;943;51.568;6.998;2023-04-22T08:11:37;3.83;;;2.30;;
1885;SDS011;943;51.568;6.998;2023-04-22T08:14:05;3.23;;;2.03;;
1885;SDS011;943;51.568;6.998;2023-04-22T08:16:33;6.33;;;2.37;;
1885;SDS011;943;51.568;6.998;2023-04-22T08:19:01;4.80;;;2.50;;
1885;SDS011;943;51.568;6.998;2023-04-22T08:21:29;3.50;;;2.20;;
1885;SDS011;943;51.568;6.998;2023-04-22T08:23:57;4.20;;;2.03;;
1885;SDS011;943;51.568;6.998;2023-04-22T08:26:25;2.70;;;1.80;;
1885;SDS011;943;51.568;6.998;2023-04-22T08:28:53;3.53;;;2.10;;
1885;SDS011;943;51.568;6.998;2023-04-22T08:31:20;3.60;;;2.40;;
1885;SDS011;943;51.568;6.998;2023-04-22T08:33:48;3.60;;;2.50;;
1885;SDS011;943;51.568;6.998;2023-04-22T08:36:16;3.60;;;2.33;;
1885;SDS011;943;51.568;6.998;2023-04-22T08:38:45;4.73;;;2.03;;
1885;SDS011;943;51.568;6.998;2023-04-22T08:41:15;2.50;;;1.90;;
1885;SDS011;943;51.568;6.998;2023-04-22T08:43:50;3.83;;;2.40;;
1885;SDS011;943;51.568;6.998;2023-04-22T08:46:19;3.37;;;2.40;;
1885;SDS011;943;51.568;6.998;2023-04-22T08:48:52;4.80;;;2.80;;
1885;SDS011;943;51.568;6.998;2023-04-22T08:51:22;2.63;;;1.93;;
1885;SDS011;943;51.568;6.998;2023-04-22T08:53:52;3.07;;;2.10;;
1885;SDS011;943;51.568;6.998;2023-04-22T08:56:19;3.43;;;2.50;;
1885;SDS011;943;51.568;6.998;2023-04-22T08:58:47;4.20;;;2.20;;
1885;SDS011;943;51.568;6.998;2023-04-22T09:01:16;2.87;;;1.60;;
1885;SDS011;943;51.568;6.998;2023-04-22T09:03:45;3.57;;;2.20;;
1885;SDS011;943;51.568;6.998;2023-04-22T09:06:16;5.00;;;1.80;;
1885;SDS011;943;51.568;6.998;2023-04-22T09:08:48;3.57;;;1.80;;
1885;SDS011;943;51.568;6.998;2023-04-22T09:11:16;3.67;;;1.60;;
1885;SDS011;943;51.568;6.998;2023-04-22T09:13:44;2.83;;;2.00;;
1885;SDS011;943;51.568;6.998;2023-04-22T09:16:13;3.63;;;1.90;;
1885;SDS011;943;51.568;6.998;2023-04-22T09:18:41;2.93;;;2.10;;
1885;SDS011;943;51.568;6.998;2023-04-22T09:21:13;3.47;;;2.00;;
1885;SDS011;943;51.568;6.998;2023-04-22T09:23:45;2.77;;;1.80;;
1885;SDS011;943;51.568;6.998;2023-04-22T09:26:23;2.73;;;2.10;;
1885;SDS011;943;51.568;6.998;2023-04-22T09:28:53;4.60;;;2.37;;
1885;SDS011;943;51.568;6.998;2023-04-22T09:31:25;3.97;;;2.03;;
1885;SDS011;943;51.568;6.998;2023-04-22T09:33:55;3.30;;;2.20;;
1885;SDS011;943;51.568;6.998;2023-04-22T09:36:26;2.50;;;1.67;;
1885;SDS011;943;51.568;6.998;2023-04-22T09:39:02;4.13;;;2.00;;
1885;SDS011;943;51.568;6.998;2023-04-22T09:41:34;3.40;;;2.03;;
1885;SDS011;943;51.568;6.998;2023-04-22T09:44:10;3.27;;;2.27;;
1885;SDS011;943;51.568;6.998;2023-04-22T09:46:46;2.57;;;1.70;;
1885;SDS011;943;51.568;6.998;2023-04-22T09:49:16;4.67;;;2.07;;
1885;SDS011;943;51.568;6.998;2023-04-22T09:51:47;2.97;;;2.13;;
1885;SDS011;943;51.568;6.998;2023-04-22T09:54:22;3.13;;;1.87;;
1885;SDS011;943;51.568;6.998;2023-04-22T09:56:51;4.00;;;2.10;;
1885;SDS011;943;51.568;6.998;2023-04-22T09:59:20;3.53;;;2.50;;
1885;SDS011;943;51.568;6.998;2023-04-22T10:01:56;3.40;;;1.97;;
1885;SDS011;943;51.568;6.998;2023-04-22T10:04:30;5.97;;;2.30;;
1885;SDS011;943;51.568;6.998;2023-04-22T10:06:58;3.43;;;1.70;;
1885;SDS011;943;51.568;6.998;2023-04-22T10:09:28;5.30;;;2.03;;
1885;SDS011;943;51.568;6.998;2023-04-22T10:11:56;3.40;;;1.83;;
1885;SDS011;943;51.568;6.998;2023-04-22T10:14:24;2.77;;;2.10;;
1885;SDS011;943;51.568;6.998;2023-04-22T10:16:55;3.27;;;2.20;;
1885;SDS011;943;51.568;6.998;2023-04-22T10:19:28;4.30;;;2.43;;
1885;SDS011;943;51.568;6.998;2023-04-22T10:22:01;2.70;;;1.90;;
1885;SDS011;943;51.568;6.998;2023-04-22T10:24:35;3.33;;;2.30;;
1885;SDS011;943;51.568;6.998;2023-04-22T10:27:03;3.63;;;2.10;;
1885;SDS011;943;51.568;6.998;2023-04-22T10:29:37;3.50;;;1.93;;
1885;SDS011;943;51.568;6.998;2023-04-22T10:34:43;4.70;;;2.83;;
1885;SDS011;943;51.568;6.998;2023-04-22T10:37:17;7.07;;;2.60;;
1885;SDS011;943;51.568;6.998;2023-04-22T10:40:06;5.27;;;2.50;;
1885;SDS011;943;51.568;6.998;2023-04-22T10:42:51;5.57;;;2.00;;
1885;SDS011;943;51.568;6.998;2023-04-22T10:45:24;3.10;;;2.00;;
1885;SDS011;943;51.568;6.998;2023-04-22T10:47:52;5.03;;;3.13;;
1885;SDS011;943;51.568;6.998;2023-04-22T10:50:22;5.03;;;2.10;;
1885;SDS011;943;51.568;6.998;2023-04-22T10:52:57;4.30;;;2.77;;
1885;SDS011;943;51.568;6.998;2023-04-22T10:56:02;5.40;;;2.40;;
1885;SDS011;943;51.568;6.998;2023-04-22T10:58:43;3.90;;;2.53;;
1885;SDS011;943;51.568;6.998;2023-04-22T11:01:14;3.97;;;3.20;;
1885;SDS011;943;51.568;6.998;2023-04-22T11:03:43;4.83;;;2.37;;
1885;SDS011;943;51.568;6.998;2023-04-22T11:06:11;4.40;;;2.27;;
1885;SDS011;943;51.568;6.998;2023-04-22T11:08:48;4.80;;;2.87;;
1885;SDS011;943;51.568;6.998;2023-04-22T11:11:34;4.20;;;3.03;;
1885;SDS011;943;51.568;6.998;2023-04-22T11:14:02;5.63;;;2.47;;
1885;SDS011;943;51.568;6.998;2023-04-22T11:16:31;3.73;;;2.07;;
1885;SDS011;943;51.568;6.998;2023-04-22T11:19:01;4.30;;;2.90;;
1885;SDS011;943;51.568;6.998;2023-04-22T11:21:29;4.80;;;3.10;;
1885;SDS011;943;51.568;6.998;2023-04-22T11:23:58;4.87;;;3.00;;
1885;SDS011;943;51.568;6.998;2023-04-22T11:26:32;5.83;;;3.33;;
1885;SDS011;943;51.568;6.998;2023-04-22T11:29:01;6.93;;;3.40;;
1885;SDS011;943;51.568;6.998;2023-04-22T11:31:29;6.00;;;2.60;;
1885;SDS011;943;51.568;6.998;2023-04-22T11:33:58;6.70;;;3.20;;
1885;SDS011;943;51.568;6.998;2023-04-22T11:36:26;6.63;;;2.50;;
1885;SDS011;943;51.568;6.998;2023-04-22T11:38:54;6.23;;;3.23;;
1885;SDS011;943;51.568;6.998;2023-04-22T11:41:23;4.60;;;3.30;;
1885;SDS011;943;51.568;6.998;2023-04-22T11:43:50;6.00;;;2.40;;
1885;SDS011;943;51.568;6.998;2023-04-22T11:46:27;5.67;;;3.27;;
1885;SDS011;943;51.568;6.998;2023-04-22T11:49:13;4.23;;;3.17;;
1885;SDS011;943;51.568;6.998;2023-04-22T11:51:55;9.33;;;2.93;;
1885;SDS011;943;51.568;6.998;2023-04-22T11:54:34;3.33;;;2.50;;
1885;SDS011;943;51.568;6.998;2023-04-22T11:57:07;3.63;;;2.60;;
1885;SDS011;943;51.568;6.998;2023-04-22T11:59:37;3.30;;;2.67;;
1885;SDS011;943;51.568;6.998;2023-04-22T12:02:06;5.90;;;3.10;;
1885;SDS011;943;51.568;6.998;2023-04-22T12:04:38;3.33;;;2.60;;
1885;SDS011;943;51.568;6.998;2023-04-22T12:07:09;4.50;;;2.90;;
1885;SDS011;943;51.568;6.998;2023-04-22T12:09:38;6.00;;;3.07;;
1885;SDS011;943;51.568;6.998;2023-04-22T12:12:07;7.60;;;3.47;;
1885;SDS011;943;51.568;6.998;2023-04-22T12:14:35;4.07;;;2.50;;
1885;SDS011;943;51.568;6.998;2023-04-22T12:17:04;3.87;;;2.50;;
1885;SDS011;943;51.568;6.998;2023-04-22T12:19:37;3.60;;;2.40;;
1885;SDS011;943;51.568;6.998;2023-04-22T12:22:07;4.10;;;3.10;;
1885;SDS011;943;51.568;6.998;2023-04-22T12:24:37;6.30;;;2.57;;
1885;SDS011;943;51.568;6.998;2023-04-22T12:27:12;3.37;;;2.50;;
1885;SDS011;943;51.568;6.998;2023-04-22T12:29:42;3.90;;;2.30;;
1885;SDS011;943;51.568;6.998;2023-04-22T12:32:24;4.17;;;2.50;;
1885;SDS011;943;51.568;6.998;2023-04-22T12:34:53;5.00;;;2.30;;
1885;SDS011;943;51.568;6.998;2023-04-22T12:37:22;8.20;;;2.70;;
1885;SDS011;943;51.568;6.998;2023-04-22T12:39:51;5.80;;;2.70;;
1885;SDS011;943;51.568;6.998;2023-04-22T12:42:19;3.00;;;2.10;;
1885;SDS011;943;51.568;6.998;2023-04-22T12:44:47;7.10;;;2.83;;
1885;SDS011;943;51.568;6.998;2023-04-22T12:47:16;5.47;;;2.50;;
1885;SDS011;943;51.568;6.998;2023-04-22T12:49:45;5.37;;;2.47;;
1885;SDS011;943;51.568;6.998;2023-04-22T12:52:15;4.40;;;2.80;;
1885;SDS011;943;51.568;6.998;2023-04-22T12:54:44;4.23;;;2.50;;
1885;SDS011;943;51.568;6.998;2023-04-22T12:57:11;4.03;;;3.00;;
1885;SDS011;943;51.568;6.998;2023-04-22T12:59:40;4.17;;;2.53;;
1885;SDS011;943;51.568;6.998;2023-04-22T13:02:08;5.10;;;3.00;;
1885;SDS011;943;51.568;6.998;2023-04-22T13:04:36;4.60;;;2.80;;
1885;SDS011;943;51.568;6.998;2023-04-22T13:07:04;3.63;;;2.50;;
1885;SDS011;943;51.568;6.998;2023-04-22T13:09:32;3.83;;;2.57;;
1885;SDS011;943;51.568;6.998;2023-04-22T13:11:59;4.37;;;2.90;;
1885;SDS011;943;51.568;6.998;2023-04-22T13:14:29;3.87;;;2.70;;
1885;SDS011;943;51.568;6.998;2023-04-22T13:16:56;4.40;;;2.77;;
1885;SDS011;943;51.568;6.998;2023-04-22T13:19:24;4.30;;;3.20;;
1885;SDS011;943;51.568;6.998;2023-04-22T13:21:52;5.63;;;2.50;;
1885;SDS011;943;51.568;6.998;2023-04-22T13:24:20;3.50;;;2.73;;
1885;SDS011;943;51.568;6.998;2023-04-22T13:26:48;4.30;;;2.80;;
1885;SDS011;943;51.568;6.998;2023-04-22T13:29:16;5.60;;;2.43;;
1885;SDS011;943;51.568;6.998;2023-04-22T13:31:44;3.40;;;2.60;;
1885;SDS011;943;51.568;6.998;2023-04-22T13:34:12;3.30;;;2.50;;
1885;SDS011;943;51.568;6.998;2023-04-22T13:36:40;6.10;;;2.60;;
1885;SDS011;943;51.568;6.998;2023-04-22T13:39:08;4.20;;;3.10;;
1885;SDS011;943;51.568;6.998;2023-04-22T13:41:37;5.80;;;3.00;;
1885;SDS011;943;51.568;6.998;2023-04-22T13:44:05;6.23;;;3.47;;
1885;SDS011;943;51.568;6.998;2023-04-22T13:46:33;6.83;;;3.03;;
1885;SDS011;943;51.568;6.998;2023-04-22T13:49:00;5.57;;;3.00;;
1885;SDS011;943;51.568;6.998;2023-04-22T13:51:29;6.30;;;3.80;;
1885;SDS011;943;51.568;6.998;2023-04-22T13:53:58;4.00;;;3.60;;
1885;SDS011;943;51.568;6.998;2023-04-22T13:56:27;4.20;;;2.90;;
1885;SDS011;943;51.568;6.998;2023-04-22T13:58:56;7.57;;;3.00;;
1885;SDS011;943;51.568;6.998;2023-04-22T14:01:25;5.10;;;3.57;;
1885;SDS011;943;51.568;6.998;2023-04-22T14:03:53;4.60;;;3.00;;
1885;SDS011;943;51.568;6.998;2023-04-22T14:06:22;5.30;;;3.33;;
1885;SDS011;943;51.568;6.998;2023-04-22T14:08:50;4.63;;;3.40;;
1885;SDS011;943;51.568;6.998;2023-04-22T14:11:17;4.63;;;2.97;;
1885;SDS011;943;51.568;6.998;2023-04-22T14:13:46;7.13;;;2.97;;
1885;SDS011;943;51.568;6.998;2023-04-22T14:16:14;3.70;;;2.80;;
1885;SDS011;943;51.568;6.998;2023-04-22T14:18:44;5.03;;;3.20;;
1885;SDS011;943;51.568;6.998;2023-04-22T14:21:12;4.50;;;2.90;;
1885;SDS011;943;51.568;6.998;2023-04-22T14:23:41;7.20;;;3.70;;
1885;SDS011;943;51.568;6.998;2023-04-22T14:26:10;5.30;;;3.20;;
1885;SDS011;943;51.568;6.998;2023-04-22T14:28:38;4.20;;;3.10;;
1885;SDS011;943;51.568;6.998;2023-04-22T14:31:08;6.40;;;3.17;;
1885;SDS011;943;51.568;6.998;2023-04-22T14:33:36;5.90;;;3.90;;
1885;SDS011;943;51.568;6.998;2023-04-22T14:36:04;4.47;;;3.40;;
1885;SDS011;943;51.568;6.998;2023-04-22T14:38:33;5.80;;;3.40;;
1885;SDS011;943;51.568;6.998;2023-04-22T14:41:02;4.10;;;2.97;;
1885;SDS011;943;51.568;6.998;2023-04-22T14:43:31;6.10;;;3.27;;
1885;SDS011;943;51.568;6.998;2023-04-22T14:46:00;6.27;;;3.30;;
1885;SDS011;943;51.568;6.998;2023-04-22T14:48:28;6.93;;;3.30;;
1885;SDS011;943;51.568;6.998;2023-04-22T14:50:57;4.00;;;2.60;;
1885;SDS011;943;51.568;6.998;2023-04-22T14:53:25;3.30;;;2.43;;
1885;SDS011;943;51.568;6.998;2023-04-22T14:55:54;3.10;;;2.23;;
1885;SDS011;943;51.568;6.998;2023-04-22T14:58:22;4.60;;;2.67;;
1885;SDS011;943;51.568;6.998;2023-04-22T15:00:52;4.20;;;2.40;;
1885;SDS011;943;51.568;6.998;2023-04-22T15:03:20;5.90;;;2.53;;
1885;SDS011;943;51.568;6.998;2023-04-22T15:05:49;6.10;;;2.87;;
1885;SDS011;943;51.568;6.998;2023-04-22T15:08:18;4.10;;;2.93;;
1885;SDS011;943;51.568;6.998;2023-04-22T15:10:46;4.10;;;2.80;;
1885;SDS011;943;51.568;6.998;2023-04-22T15:13:14;3.47;;;2.60;;
1885;SDS011;943;51.568;6.998;2023-04-22T15:15:43;3.90;;;2.67;;
1885;SDS011;943;51.568;6.998;2023-04-22T15:18:11;4.77;;;2.80;;
1885;SDS011;943;51.568;6.998;2023-04-22T15:20:39;4.90;;;3.00;;
1885;SDS011;943;51.568;6.998;2023-04-22T15:23:07;4.80;;;2.70;;
1885;SDS011;943;51.568;6.998;2023-04-22T15:25:35;5.87;;;3.20;;
1885;SDS011;943;51.568;6.998;2023-04-22T15:28:03;7.43;;;4.13;;
1885;SDS011;943;51.568;6.998;2023-04-22T15:30:31;4.00;;;2.77;;
1885;SDS011;943;51.568;6.998;2023-04-22T15:32:59;4.77;;;2.60;;
1885;SDS011;943;51.568;6.998;2023-04-22T15:35:30;3.80;;;2.83;;
1885;SDS011;943;51.568;6.998;2023-04-22T15:37:58;4.83;;;3.00;;